createdAt,value
2019-03-05T00:01:01.830Z,6.98
2019-03-05T00:03:09.686Z,6.96
2019-03-05T00:05:17.149Z,6.92
2019-03-05T00:07:26.970Z,6.89
2019-03-05T00:09:33.878Z,6.86
2019-03-05T00:11:41.521Z,6.86
2019-03-05T00:13:50.352Z,6.88
2019-03-05T00:15:57.150Z,6.90
2019-03-05T00:18:05.904Z,6.92
2019-03-05T00:20:14.156Z,6.94
2019-03-05T00:22:21.203Z,6.98
2019-03-05T00:25:03.600Z,6.99
2019-03-05T00:27:10.685Z,7.01
2019-03-05T00:29:30.145Z,7.00
2019-03-05T00:31:41.304Z,7.01
2019-03-05T00:34:11.347Z,6.99
2019-03-05T00:36:34.176Z,7.02
2019-03-05T00:39:14.475Z,7.01
2019-03-05T00:41:28.927Z,7.02
2019-03-05T00:44:16.499Z,7.01
2019-03-05T00:46:44.150Z,7.02
2019-03-05T00:49:10.177Z,7.04
2019-03-05T00:51:54.177Z,7.07
2019-03-05T00:54:24.237Z,7.10
2019-03-05T00:56:56.327Z,7.09
2019-03-05T00:59:07.179Z,7.12
2019-03-05T01:01:42.457Z,7.11
2019-03-05T01:04:06.627Z,7.08
2019-03-05T01:06:28.648Z,7.12
2019-03-05T01:08:35.817Z,7.13
2019-03-05T01:10:42.598Z,7.15
2019-03-05T01:12:49.714Z,7.18
2019-03-05T01:14:59.817Z,7.18
2019-03-05T01:17:06.774Z,7.17
2019-03-05T01:19:13.743Z,7.15
2019-03-05T01:21:21.680Z,7.19
2019-03-05T01:23:28.908Z,7.19
2019-03-05T01:25:36.539Z,7.18
2019-03-05T01:27:44.938Z,7.18
2019-03-05T01:29:52.071Z,7.19
2019-03-05T01:32:00.602Z,7.23
2019-03-05T01:36:33.317Z,7.21
2019-03-05T01:38:46.888Z,7.18
2019-03-05T01:40:55.364Z,7.18
2019-03-05T01:43:01.969Z,7.11
2019-03-05T01:45:12.844Z,7.01
2019-03-05T01:47:19.535Z,6.94
2019-03-05T01:49:26.506Z,6.96
2019-03-05T01:51:33.463Z,6.91
2019-03-05T01:53:41.432Z,6.89
2019-03-05T01:55:48.137Z,6.84
2019-03-05T01:57:58.791Z,6.79
2019-03-05T02:00:25.059Z,6.77
2019-03-05T02:02:34.371Z,6.79
2019-03-05T02:04:45.413Z,6.77
2019-03-05T02:06:52.743Z,6.76
2019-03-05T02:08:59.606Z,6.80
2019-03-05T02:11:06.868Z,6.83
2019-03-05T02:13:14.386Z,6.87
2019-03-05T02:15:21.692Z,6.88
2019-03-05T02:17:28.613Z,6.85
2019-03-05T02:19:46.825Z,6.85
2019-03-05T02:21:53.488Z,6.86
2019-03-05T02:24:39.625Z,6.85
2019-03-05T02:26:56.324Z,6.83
2019-03-05T02:29:37.792Z,6.78
2019-03-05T02:34:57.253Z,6.70
2019-03-05T02:37:27.615Z,6.58
2019-03-05T02:39:48.180Z,6.48
2019-03-05T02:42:17.138Z,6.39
2019-03-05T02:44:32.037Z,6.26
2019-03-05T02:46:59.974Z,6.18
2019-03-05T02:49:19.403Z,6.13
2019-03-05T02:51:46.654Z,6.07
2019-03-05T02:54:06.005Z,6.02
2019-03-05T02:56:44.460Z,6.00
2019-03-05T02:58:49.544Z,5.98
2019-03-05T03:01:02.016Z,5.89
2019-03-05T03:03:10.626Z,5.88
2019-03-05T03:05:32.057Z,5.94
2019-03-05T03:07:42.164Z,5.92
2019-03-05T03:09:56.151Z,5.84
2019-03-05T03:12:03.326Z,5.76
2019-03-05T03:14:10.373Z,5.71
2019-03-05T03:16:19.070Z,5.67
2019-03-05T03:18:25.910Z,5.71
2019-03-05T03:20:34.022Z,5.68
2019-03-05T03:22:41.187Z,5.66
2019-03-05T03:24:48.139Z,5.63
2019-03-05T03:26:54.959Z,5.56
2019-03-05T03:29:01.609Z,5.50
2019-03-05T03:31:08.645Z,5.47
2019-03-05T03:33:15.534Z,5.45
2019-03-05T03:35:22.805Z,5.49
2019-03-05T03:37:29.772Z,5.49
2019-03-05T03:39:38.451Z,5.49
2019-03-05T03:41:45.548Z,5.44
2019-03-05T03:43:52.315Z,5.37
2019-03-05T03:45:58.779Z,5.34
2019-03-05T03:48:05.677Z,5.35
2019-03-05T03:50:13.849Z,5.33
2019-03-05T03:52:21.712Z,5.26
2019-03-05T03:54:28.624Z,5.21
2019-03-05T03:56:35.614Z,5.24
2019-03-05T03:58:42.871Z,5.24
2019-03-05T04:00:50.242Z,5.27
2019-03-05T04:02:57.276Z,5.30
2019-03-05T04:05:04.537Z,5.32
2019-03-05T04:07:14.102Z,5.34
2019-03-05T04:09:21.005Z,5.33
2019-03-05T04:11:28.116Z,5.27
2019-03-05T04:13:34.757Z,5.24
2019-03-05T04:15:41.890Z,5.22
2019-03-05T04:17:48.685Z,5.21
2019-03-05T04:19:55.606Z,5.18
2019-03-05T04:22:02.838Z,5.21
2019-03-05T04:24:09.881Z,5.25
2019-03-05T04:26:17.235Z,5.32
2019-03-05T04:28:24.364Z,5.35
2019-03-05T04:30:31.171Z,5.36
2019-03-05T04:32:41.668Z,5.45
2019-03-05T04:34:49.122Z,5.50
2019-03-05T04:36:56.819Z,5.59
2019-03-05T04:39:04.968Z,5.57
2019-03-05T04:41:11.787Z,5.61
2019-03-05T04:43:19.517Z,5.65
2019-03-05T04:45:40.916Z,5.67
2019-03-05T04:47:48.181Z,5.70
2019-03-05T04:50:02.983Z,5.70
2019-03-05T04:52:11.560Z,5.67
2019-03-05T04:54:18.257Z,5.70
2019-03-05T04:56:27.242Z,5.64
2019-03-05T04:58:34.255Z,5.59
2019-03-05T05:00:41.724Z,5.62
2019-03-05T05:02:48.800Z,5.61
2019-03-05T05:04:55.768Z,5.63
2019-03-05T05:07:02.662Z,5.60
2019-03-05T05:09:09.573Z,5.52
2019-03-05T05:11:16.576Z,5.61
2019-03-05T05:13:23.500Z,5.59
2019-03-05T05:15:40.460Z,5.57
2019-03-05T05:17:47.305Z,5.56
2019-03-05T05:20:06.627Z,5.67
2019-03-05T05:22:15.958Z,5.63
2019-03-05T05:24:22.685Z,5.61
2019-03-05T05:26:31.082Z,5.61
2019-03-05T05:28:37.719Z,5.56
2019-03-05T05:30:44.768Z,5.48
2019-03-05T05:32:51.619Z,5.45
2019-03-05T05:34:58.466Z,5.47
2019-03-05T05:37:05.328Z,5.73
2019-03-05T05:40:06.740Z,5.79
2019-03-05T05:42:13.966Z,5.84
2019-03-05T05:44:20.721Z,5.83
2019-03-05T05:46:28.413Z,5.78
2019-03-05T05:48:35.349Z,5.89
2019-03-05T05:50:43.776Z,5.94
2019-03-05T05:52:52.488Z,5.86
2019-03-05T05:54:59.246Z,5.81
2019-03-05T05:57:05.908Z,5.82
2019-03-05T05:59:12.735Z,5.84
2019-03-05T06:01:19.647Z,5.95
2019-03-05T06:03:26.390Z,5.96
2019-03-05T06:05:34.835Z,5.94
2019-03-05T06:07:42.247Z,5.87
2019-03-05T06:09:49.215Z,5.92
2019-03-05T06:11:56.317Z,5.98
2019-03-05T06:14:04.085Z,6.00
2019-03-05T06:16:11.088Z,6.00
2019-03-05T06:18:18.376Z,6.14
2019-03-05T06:20:25.337Z,6.29
2019-03-05T06:22:32.307Z,6.35
2019-03-05T06:24:39.178Z,6.32
2019-03-05T06:26:46.216Z,6.23
2019-03-05T06:28:52.938Z,6.21
2019-03-05T06:30:59.884Z,6.17
2019-03-05T06:33:07.027Z,6.13
2019-03-05T06:35:15.487Z,6.14
2019-03-05T06:37:22.918Z,6.16
2019-03-05T06:39:30.327Z,6.18
2019-03-05T06:41:37.297Z,6.20
2019-03-05T06:43:44.427Z,6.23
2019-03-05T06:45:51.362Z,6.23
2019-03-05T06:47:58.267Z,6.31
2019-03-05T06:50:06.387Z,6.35
2019-03-05T06:52:13.317Z,6.37
2019-03-05T06:54:20.037Z,6.39
2019-03-05T06:56:26.824Z,6.41
2019-03-05T06:58:33.648Z,6.45
2019-03-05T07:00:41.678Z,6.49
2019-03-05T07:03:00.527Z,6.46
2019-03-05T07:05:10.935Z,6.43
2019-03-05T07:07:17.936Z,6.52
2019-03-05T07:09:52.971Z,6.62
2019-03-05T07:12:21.824Z,6.68
2019-03-05T07:14:48.097Z,6.68
2019-03-05T07:17:08.058Z,6.72
2019-03-05T07:19:15.407Z,6.73
2019-03-05T07:21:51.176Z,6.79
2019-03-05T07:24:38.876Z,6.84
2019-03-05T07:26:45.917Z,6.89
2019-03-05T07:28:53.335Z,6.95
2019-03-05T07:31:00.589Z,7.02
2019-03-05T07:33:07.687Z,7.08
2019-03-05T07:35:18.830Z,7.18
2019-03-05T07:37:25.768Z,7.23
2019-03-05T07:39:32.811Z,7.26
2019-03-05T07:41:39.756Z,7.33
2019-03-05T07:43:46.649Z,7.46
2019-03-05T07:45:53.647Z,7.50
2019-03-05T07:48:00.464Z,7.46
2019-03-05T07:50:11.746Z,7.49
2019-03-05T07:52:18.637Z,7.52
2019-03-05T07:54:26.987Z,7.53
2019-03-05T07:56:33.999Z,7.59
2019-03-05T07:58:41.024Z,7.66
2019-03-05T08:00:47.904Z,7.73
2019-03-05T08:02:55.442Z,7.90
2019-03-05T08:05:02.487Z,8.08
2019-03-05T08:07:10.387Z,8.23
2019-03-05T08:09:38.027Z,8.21
2019-03-05T08:11:46.127Z,8.20
2019-03-05T08:14:15.666Z,8.14
2019-03-05T08:16:24.844Z,8.12
2019-03-05T08:18:31.868Z,8.00
2019-03-05T08:20:39.023Z,8.11
2019-03-05T08:22:46.448Z,8.15
2019-03-05T08:24:53.460Z,8.22
2019-03-05T08:27:00.448Z,8.30
2019-03-05T08:29:07.337Z,8.33
2019-03-05T08:31:14.229Z,8.42
2019-03-05T08:33:21.289Z,8.44
2019-03-05T08:35:29.528Z,8.49
2019-03-05T08:37:36.411Z,8.58
2019-03-05T08:39:43.704Z,8.60
2019-03-05T08:41:50.347Z,8.58
2019-03-05T08:43:57.474Z,8.52
2019-03-05T08:46:04.518Z,8.58
2019-03-05T08:48:13.167Z,8.55
2019-03-05T08:50:20.293Z,8.46
2019-03-05T08:52:27.098Z,8.31
2019-03-05T08:54:34.917Z,8.24
2019-03-05T08:56:41.786Z,8.19
2019-03-05T08:58:48.522Z,8.12
2019-03-05T09:00:57.342Z,8.11
2019-03-05T09:03:04.222Z,8.10
2019-03-05T09:05:13.739Z,8.14
2019-03-05T09:07:20.947Z,8.15
2019-03-05T09:09:27.728Z,8.17
2019-03-05T09:11:34.667Z,8.18
2019-03-05T09:13:41.784Z,8.16
2019-03-05T09:15:49.138Z,8.20
2019-03-05T09:17:56.404Z,8.13
2019-03-05T09:20:03.935Z,8.11
2019-03-05T09:22:12.644Z,8.12
2019-03-05T09:24:19.895Z,8.08
2019-03-05T09:26:26.903Z,8.04
2019-03-05T09:28:35.325Z,8.08
2019-03-05T09:30:42.277Z,8.13
2019-03-05T09:32:51.145Z,8.23
2019-03-05T09:34:58.685Z,8.21
2019-03-05T09:37:06.137Z,8.19
2019-03-05T09:39:14.438Z,8.21
2019-03-05T09:41:21.554Z,8.14
2019-03-05T09:43:28.624Z,8.14
2019-03-05T09:45:35.868Z,8.10
2019-03-05T09:47:42.725Z,8.00
2019-03-05T09:49:51.601Z,8.01
2019-03-05T09:51:58.511Z,8.01
2019-03-05T09:54:05.584Z,8.03
2019-03-05T09:56:12.865Z,8.06
2019-03-05T09:58:20.248Z,8.08
2019-03-05T10:00:29.259Z,8.13
2019-03-05T10:02:36.768Z,8.18
2019-03-05T10:04:44.018Z,8.21
2019-03-05T10:06:51.249Z,8.27
2019-03-05T10:08:58.516Z,8.37
2019-03-05T10:11:05.589Z,8.53
2019-03-05T10:13:13.435Z,8.63
2019-03-05T10:15:22.937Z,8.79
2019-03-05T10:17:37.935Z,9.11
2019-03-05T10:19:39.525Z,9.17
2019-03-05T10:21:46.770Z,9.27
2019-03-05T10:23:54.376Z,9.26
2019-03-05T10:26:01.416Z,9.37
2019-03-05T10:28:08.599Z,9.34
2019-03-05T10:30:37.659Z,9.35
2019-03-05T10:32:45.896Z,9.28
2019-03-05T10:34:53.309Z,9.12
2019-03-05T10:37:00.257Z,8.81
2019-03-05T10:39:11.397Z,8.62
2019-03-05T10:41:19.926Z,8.64
2019-03-05T10:43:27.829Z,8.63
2019-03-05T10:45:34.859Z,8.74
2019-03-05T10:47:42.226Z,8.88
2019-03-05T10:49:49.100Z,8.92
2019-03-05T10:51:58.787Z,9.04
2019-03-05T10:54:05.307Z,9.05
2019-03-05T10:56:12.363Z,9.12
2019-03-05T10:58:20.610Z,9.21
2019-03-05T11:00:31.569Z,9.22
2019-03-05T11:02:38.620Z,9.33
2019-03-05T11:04:46.153Z,9.21
2019-03-05T11:06:53.811Z,9.14
2019-03-05T11:09:02.745Z,9.06
2019-03-05T11:11:13.900Z,8.99
2019-03-05T11:13:20.879Z,8.89
2019-03-05T11:15:30.887Z,8.86
2019-03-05T11:17:38.429Z,8.87
2019-03-05T11:19:46.049Z,8.92
2019-03-05T11:21:53.439Z,8.85
2019-03-05T11:24:00.869Z,8.84
2019-03-05T11:26:08.034Z,8.84
2019-03-05T11:28:15.180Z,8.75
2019-03-05T11:30:36.203Z,8.78
2019-03-05T11:32:37.546Z,8.80
2019-03-05T11:34:44.460Z,8.81
2019-03-05T11:36:53.099Z,8.73
2019-03-05T11:39:00.300Z,8.66
2019-03-05T11:41:08.780Z,8.67
2019-03-05T11:43:18.106Z,8.72
2019-03-05T11:45:29.964Z,8.85
2019-03-05T11:47:36.937Z,9.05
2019-03-05T11:49:43.750Z,9.18
2019-03-05T11:51:50.737Z,9.36
2019-03-05T11:53:57.657Z,9.52
2019-03-05T11:56:04.421Z,9.51
2019-03-05T11:58:11.585Z,9.44
2019-03-05T12:00:27.906Z,9.22
2019-03-05T12:02:35.259Z,9.10
2019-03-05T12:04:42.667Z,8.95
2019-03-05T12:06:49.539Z,8.80
2019-03-05T12:08:56.957Z,8.56
2019-03-05T12:11:04.237Z,8.22
2019-03-05T12:13:11.379Z,7.98
2019-03-05T12:15:21.469Z,7.82
2019-03-05T12:17:28.059Z,7.82
2019-03-05T12:19:35.629Z,7.85
2019-03-05T12:21:42.727Z,8.06
2019-03-05T12:23:49.778Z,8.38
2019-03-05T12:25:56.698Z,8.60
2019-03-05T12:28:10.178Z,8.76
2019-03-05T12:30:17.739Z,8.72
2019-03-05T12:32:25.339Z,8.86
2019-03-05T12:34:32.219Z,8.89
2019-03-05T12:36:39.266Z,8.84
2019-03-05T12:38:46.488Z,8.89
2019-03-05T12:40:54.368Z,9.00
2019-03-05T12:43:01.876Z,8.98
2019-03-05T12:45:12.139Z,8.96
2019-03-05T12:47:19.021Z,8.99
2019-03-05T12:49:26.289Z,9.04
2019-03-05T12:51:33.049Z,9.08
2019-03-05T12:53:40.040Z,9.12
2019-03-05T12:55:48.734Z,9.09
2019-03-05T12:57:55.941Z,9.18
2019-03-05T13:00:03.338Z,9.23
2019-03-05T13:02:11.801Z,9.33
2019-03-05T13:04:19.643Z,9.36
2019-03-05T13:06:30.263Z,9.17
2019-03-05T13:08:37.592Z,9.07
2019-03-05T13:10:45.339Z,9.02
2019-03-05T13:12:52.381Z,8.99
2019-03-05T13:14:59.380Z,8.88
2019-03-05T13:17:07.011Z,8.94
2019-03-05T13:19:14.368Z,8.90
2019-03-05T13:21:21.453Z,8.83
2019-03-05T13:23:28.478Z,8.80
2019-03-05T13:25:38.137Z,8.76
2019-03-05T13:27:44.812Z,8.70
2019-03-05T13:29:51.856Z,8.67
2019-03-05T13:31:58.797Z,8.60
2019-03-05T13:34:06.032Z,8.60
2019-03-05T13:36:13.569Z,8.60
2019-03-05T13:38:21.024Z,8.65
2019-03-05T13:40:34.066Z,8.78
2019-03-05T13:42:39.986Z,8.92
2019-03-05T13:44:47.205Z,8.86
2019-03-05T13:46:54.674Z,8.96
2019-03-05T13:49:09.036Z,8.94
2019-03-05T13:51:40.922Z,8.81
2019-03-05T13:54:09.530Z,8.75
2019-03-05T13:56:28.862Z,8.64
2019-03-05T13:59:13.544Z,8.64
2019-03-05T14:01:21.514Z,8.57
2019-03-05T14:03:38.418Z,8.53
2019-03-05T14:06:10.106Z,8.52
2019-03-05T14:09:00.962Z,8.48
2019-03-05T14:11:09.675Z,8.38
2019-03-05T14:13:16.812Z,8.40
2019-03-05T14:15:24.135Z,8.42
2019-03-05T14:17:31.892Z,8.38
2019-03-05T14:19:39.291Z,8.35
2019-03-05T14:21:46.948Z,8.40
2019-03-05T14:23:54.081Z,8.47
2019-03-05T14:26:01.563Z,8.42
2019-03-05T14:28:09.157Z,8.31
2019-03-05T14:30:22.244Z,8.21
2019-03-05T14:32:29.377Z,8.23
2019-03-05T14:34:36.523Z,8.29
2019-03-05T14:36:45.281Z,8.32
2019-03-05T14:38:52.303Z,8.33
2019-03-05T14:41:00.325Z,8.34
2019-03-05T14:43:07.786Z,8.26
2019-03-05T14:45:24.186Z,8.27
2019-03-05T14:47:32.708Z,8.29
2019-03-05T14:49:39.755Z,8.24
2019-03-05T14:51:47.154Z,8.18
2019-03-05T14:53:54.414Z,8.11
2019-03-05T14:56:01.564Z,8.12
2019-03-05T14:58:08.538Z,8.13
2019-03-05T15:00:20.431Z,8.11
2019-03-05T15:02:27.636Z,8.07
2019-03-05T15:04:34.917Z,8.07
2019-03-05T15:06:42.702Z,8.10
2019-03-05T15:08:49.841Z,8.18
2019-03-05T15:10:57.065Z,8.21
2019-03-05T15:13:15.283Z,8.26
2019-03-05T15:15:29.327Z,8.35
2019-03-05T15:17:36.991Z,8.35
2019-03-05T15:19:44.708Z,8.30
2019-03-05T15:21:52.080Z,8.23
2019-03-05T15:23:59.557Z,8.14
2019-03-05T15:26:07.061Z,8.11
2019-03-05T15:28:14.254Z,8.11
2019-03-05T15:30:29.396Z,8.06
2019-03-05T15:32:36.845Z,7.98
2019-03-05T15:34:44.136Z,7.93
2019-03-05T15:36:52.128Z,7.86
2019-03-05T15:38:59.495Z,7.77
2019-03-05T15:41:07.226Z,7.74
2019-03-05T15:43:14.993Z,7.70
2019-03-05T15:45:24.191Z,7.64
2019-03-05T15:47:32.050Z,7.58
2019-03-05T15:49:40.457Z,7.52
2019-03-05T15:51:48.497Z,7.47
2019-03-05T15:53:55.690Z,7.45
2019-03-05T15:56:02.879Z,7.45
2019-03-05T15:58:10.596Z,7.40
2019-03-05T16:00:28.836Z,7.42
2019-03-05T16:02:36.485Z,7.50
2019-03-05T16:04:44.130Z,7.59
2019-03-05T16:06:51.373Z,7.63
2019-03-05T16:09:02.265Z,7.66
2019-03-05T16:11:08.867Z,7.68
2019-03-05T16:13:19.319Z,7.65
2019-03-05T16:15:25.299Z,7.61
2019-03-05T16:17:33.108Z,7.57
2019-03-05T16:19:40.504Z,7.53
2019-03-05T16:21:48.023Z,7.53
2019-03-05T16:23:55.439Z,7.59
2019-03-05T16:26:02.540Z,7.59
2019-03-05T16:28:09.803Z,7.58
2019-03-05T16:30:43.854Z,7.54
2019-03-05T16:32:52.765Z,7.53
2019-03-05T16:35:01.809Z,7.51
2019-03-05T16:37:13.813Z,7.51
2019-03-05T16:39:39.224Z,7.51
2019-03-05T16:41:53.495Z,7.51
2019-03-05T16:44:16.350Z,7.53
2019-03-05T16:46:43.372Z,7.48
2019-03-05T16:49:12.309Z,7.52
2019-03-05T16:51:26.522Z,7.50
2019-03-05T16:53:48.221Z,7.49
2019-03-05T16:56:10.052Z,7.47
2019-03-05T16:58:36.574Z,7.49
2019-03-05T17:00:49.148Z,7.47
2019-03-05T17:03:04.114Z,7.47
2019-03-05T17:05:33.113Z,7.47
2019-03-05T17:07:53.744Z,7.47
2019-03-05T17:10:08.372Z,7.43
2019-03-05T17:12:15.944Z,7.39
2019-03-05T17:14:24.097Z,7.36
2019-03-05T17:16:31.580Z,7.34
2019-03-05T17:18:38.700Z,7.34
2019-03-05T17:20:47.169Z,7.31
2019-03-05T17:22:54.464Z,7.29
2019-03-05T17:25:02.006Z,7.26
2019-03-05T17:27:09.421Z,7.24
2019-03-05T17:29:16.898Z,7.23
2019-03-05T17:31:24.410Z,7.25
2019-03-05T17:33:31.685Z,7.22
2019-03-05T17:35:38.943Z,7.18
2019-03-05T17:37:49.655Z,7.15
2019-03-05T17:39:56.915Z,7.11
2019-03-05T17:42:04.162Z,7.05
2019-03-05T17:44:11.715Z,7.00
2019-03-05T17:46:18.861Z,6.93
2019-03-05T17:48:26.802Z,6.85
2019-03-05T17:50:37.403Z,6.83
2019-03-05T17:52:45.420Z,6.76
2019-03-05T17:54:53.476Z,6.77
2019-03-05T17:57:01.262Z,6.81
2019-03-05T17:59:09.642Z,6.81
2019-03-05T18:01:18.242Z,6.80
2019-03-05T18:03:26.114Z,6.83
2019-03-05T18:05:34.818Z,6.84
2019-03-05T18:07:43.983Z,6.77
2019-03-05T18:09:51.926Z,6.82
2019-03-05T18:11:59.454Z,6.79
2019-03-05T18:14:07.354Z,6.77
2019-03-05T18:16:15.374Z,6.76
2019-03-05T18:18:23.070Z,6.79
2019-03-05T18:20:30.919Z,6.86
2019-03-05T18:22:40.928Z,6.89
2019-03-05T18:24:48.533Z,6.97
2019-03-05T18:26:56.383Z,6.98
2019-03-05T18:29:05.776Z,7.01
2019-03-05T18:31:13.060Z,7.01
2019-03-05T18:33:20.373Z,7.00
2019-03-05T18:35:28.217Z,7.02
2019-03-05T18:37:35.666Z,6.99
2019-03-05T18:39:44.571Z,6.95
2019-03-05T18:41:58.805Z,6.92
2019-03-05T18:44:07.359Z,6.91
2019-03-05T18:46:15.011Z,6.95
2019-03-05T18:48:22.613Z,6.90
2019-03-05T18:50:30.153Z,6.88
2019-03-05T18:52:37.520Z,6.86
2019-03-05T18:54:44.872Z,6.85
2019-03-05T18:56:52.102Z,6.85
2019-03-05T18:59:00.816Z,6.84
2019-03-05T19:01:09.814Z,6.81
2019-03-05T19:03:19.495Z,6.80
2019-03-05T19:05:27.236Z,6.78
2019-03-05T19:07:34.755Z,6.78
2019-03-05T19:09:42.222Z,6.79
2019-03-05T19:11:49.605Z,6.82
2019-03-05T19:13:57.242Z,6.86
2019-03-05T19:16:05.031Z,6.86
2019-03-05T19:18:12.720Z,6.85
2019-03-05T19:20:23.149Z,6.78
2019-03-05T19:22:32.030Z,6.72
2019-03-05T19:24:39.840Z,6.59
2019-03-05T19:26:48.802Z,6.48
2019-03-05T19:28:56.474Z,6.38
2019-03-05T19:31:04.032Z,6.29
2019-03-05T19:33:18.310Z,6.24
2019-03-05T19:35:27.775Z,6.17
2019-03-05T19:37:36.752Z,6.16
2019-03-05T19:39:46.829Z,6.11
2019-03-05T19:41:56.312Z,6.08
2019-03-05T19:44:04.382Z,6.04
2019-03-05T19:46:11.732Z,6.00
2019-03-05T19:48:19.310Z,5.95
2019-03-05T19:50:27.780Z,5.93
2019-03-05T19:52:35.506Z,5.93
2019-03-05T19:54:42.882Z,5.90
2019-03-05T19:56:50.583Z,5.92
2019-03-05T19:58:59.155Z,5.93
2019-03-05T20:01:15.524Z,5.91
2019-03-05T20:03:22.883Z,5.86
2019-03-05T20:05:30.303Z,5.86
2019-03-05T20:07:38.942Z,5.84
2019-03-05T20:09:46.266Z,5.85
2019-03-05T20:11:53.695Z,5.87
2019-03-05T20:14:02.423Z,5.87
2019-03-05T20:16:11.696Z,5.87
2019-03-05T20:18:19.082Z,5.91
2019-03-05T20:20:26.722Z,5.91
2019-03-05T20:22:34.091Z,5.94
2019-03-05T20:24:41.596Z,5.97
2019-03-05T20:26:52.822Z,5.99
2019-03-05T20:29:00.773Z,5.99
2019-03-05T20:31:10.498Z,5.98
2019-03-05T20:33:20.555Z,5.96
2019-03-05T20:35:31.525Z,5.93
2019-03-05T20:37:41.047Z,5.94
2019-03-05T20:39:50.642Z,5.92
2019-03-05T20:41:58.344Z,5.94
2019-03-05T20:44:06.565Z,5.93
2019-03-05T20:46:22.689Z,5.91
2019-03-05T20:48:32.457Z,5.90
2019-03-05T20:50:41.580Z,5.91
2019-03-05T20:52:53.303Z,5.90
2019-03-05T20:55:05.716Z,5.89
2019-03-05T20:57:13.920Z,5.87
2019-03-05T20:59:21.937Z,5.86
2019-03-05T21:01:29.913Z,5.86
2019-03-05T21:03:37.451Z,5.86
2019-03-05T21:05:47.404Z,5.84
2019-03-05T21:07:54.739Z,5.81
2019-03-05T21:10:04.261Z,5.82
2019-03-05T21:12:12.420Z,5.82
2019-03-05T21:14:19.952Z,5.83
2019-03-05T21:16:30.337Z,5.83
2019-03-05T21:18:37.621Z,5.80
2019-03-05T21:20:45.567Z,5.79
2019-03-05T21:22:55.139Z,5.78
2019-03-05T21:25:03.087Z,5.78
2019-03-05T21:27:11.328Z,5.75
2019-03-05T21:29:21.192Z,5.73
2019-03-05T21:31:28.377Z,5.71
2019-03-05T21:33:35.977Z,5.70
2019-03-05T21:35:43.495Z,5.71
2019-03-05T21:37:51.175Z,5.69
2019-03-05T21:39:58.647Z,5.69
2019-03-05T21:42:06.246Z,5.71
2019-03-05T21:44:13.533Z,5.72
2019-03-05T21:46:21.647Z,5.73
2019-03-05T21:48:29.207Z,5.75
2019-03-05T21:50:37.250Z,5.76
2019-03-05T21:52:45.607Z,5.76
2019-03-05T21:54:53.135Z,5.79
2019-03-05T21:57:01.798Z,5.78
2019-03-05T21:59:10.087Z,5.78
2019-03-05T22:01:18.089Z,5.76
2019-03-05T22:03:26.136Z,5.75
2019-03-05T22:05:33.769Z,5.76
2019-03-05T22:07:41.168Z,5.74
2019-03-05T22:09:49.068Z,5.71
2019-03-05T22:11:56.336Z,5.72
2019-03-05T22:14:03.935Z,5.71
2019-03-05T22:16:11.387Z,5.67
2019-03-05T22:18:18.409Z,5.64
2019-03-05T22:20:25.808Z,5.59
2019-03-05T22:22:32.547Z,5.56
2019-03-05T22:24:39.837Z,5.52
2019-03-05T22:26:47.074Z,5.50
2019-03-05T22:28:54.037Z,5.47
2019-03-05T22:31:01.174Z,5.46
2019-03-05T22:33:09.147Z,5.43
2019-03-05T22:35:17.888Z,5.41
2019-03-05T22:37:24.960Z,5.42
2019-03-05T22:39:32.372Z,5.41
2019-03-05T22:41:39.444Z,5.40
2019-03-05T22:43:46.561Z,5.39
2019-03-05T22:45:53.356Z,5.39
2019-03-05T22:48:00.998Z,5.38
2019-03-05T22:50:12.789Z,5.38
2019-03-05T22:52:20.693Z,5.37
2019-03-05T22:54:27.994Z,5.37
2019-03-05T22:56:46.392Z,5.37
2019-03-05T22:58:53.201Z,5.36
2019-03-05T23:01:05.566Z,5.35
2019-03-05T23:03:18.569Z,5.33
2019-03-05T23:05:25.661Z,5.33
2019-03-05T23:07:32.845Z,5.29
2019-03-05T23:09:41.197Z,5.26
2019-03-05T23:11:48.444Z,5.24
2019-03-05T23:13:55.655Z,5.23
2019-03-05T23:16:03.246Z,5.21
2019-03-05T23:18:10.509Z,5.20
2019-03-05T23:20:18.705Z,5.18
2019-03-05T23:22:26.050Z,5.17
2019-03-05T23:24:33.202Z,5.14
2019-03-05T23:26:40.242Z,5.14
2019-03-05T23:28:47.543Z,5.11
2019-03-05T23:30:55.243Z,5.09
2019-03-05T23:33:02.682Z,5.10
2019-03-05T23:35:15.202Z,5.07
2019-03-05T23:37:22.494Z,5.04
2019-03-05T23:39:29.712Z,5.04
2019-03-05T23:41:37.444Z,5.02
2019-03-05T23:43:44.319Z,4.99
2019-03-05T23:45:51.347Z,4.99
2019-03-05T23:47:58.389Z,5.01
2019-03-05T23:50:14.494Z,5.01
2019-03-05T23:52:21.898Z,4.99
2019-03-05T23:54:29.841Z,5.00
2019-03-05T23:56:36.778Z,4.98
2019-03-05T23:58:44.332Z,4.99
